This is the latest recevied weather packets stored in our database for station/object JF7ELG-13. If no packets are shown the sender has not sent any weather packets the latest 10 day(s).
| Time | Temp. | Humidity | Pressure | Rain* | Wind** | Luminosity | Snow |
|---|---|---|---|---|---|---|---|
| 1777654121 | 14.44° C | 78% | 985.1 hPa | 0 mm | - | - | - |
| 1777653194 | 13.89° C | 80% | 985.6 hPa | 0 mm | - | - | - |
| 1777652314 | 13.33° C | 80% | 985.5 hPa | 0 mm | - | - | - |
| 1777651420 | 13.33° C | 81% | 985.7 hPa | 0 mm | - | - | - |
| 1777650516 | 13.89° C | 81% | 985.9 hPa | 0 mm | - | - | - |
| 1777649625 | 13.89° C | 77% | 986.1 hPa | 0 mm | - | - | - |
| 1777648703 | 13.89° C | 80% | 986.2 hPa | 0 mm | - | - | - |
| 1777647811 | 13.33° C | 82% | 986.3 hPa | 0 mm | - | - | - |
| 1777646909 | 13.33° C | 85% | 986.1 hPa | 0 mm | - | - | - |
| 1777646013 | 14.44° C | 81% | 986.5 hPa | 0 mm | - | - | - |
| 1777645109 | 13.89° C | 84% | 986.3 hPa | 0 mm | - | - | - |
| 1777644243 | 14.44° C | 85% | 986.6 hPa | 0 mm | - | - | - |
| 1777643303 | 15° C | 82% | 986.8 hPa | 0 mm | - | - | - |
| 1777642439 | 15° C | 87% | 987 hPa | 0 mm | - | - | - |
| 1777641506 | 13.89° C | 90% | 987.1 hPa | 0 mm | - | - | - |
| 1777640607 | 14.44° C | 89% | 987.3 hPa | 0 mm | - | - | - |
| 1777639698 | 13.89° C | 91% | 987.8 hPa | 0 mm | - | - | - |
| 1777638796 | 15° C | 89% | 987.8 hPa | 0 mm | - | - | - |
| 1777637916 | 15.56° C | 87% | 988.3 hPa | 0 mm | - | - | - |
| 1777637028 | 16.11° C | 85% | 988.2 hPa | 0 mm | - | - | - |
| 1777636121 | 16.67° C | 86% | 988.4 hPa | 0 mm | - | - | - |
| 1777635197 | 17.22° C | 87% | 988.3 hPa | 0 mm | - | - | - |
| 1777634335 | 16.67° C | 96% | 988 hPa | 0 mm | - | - | - |
| 1777633404 | 17.22° C | 95% | 987.6 hPa | 0 mm | - | - | - |
| 1777632497 | 17.22° C | 96% | 987.6 hPa | 0 mm | - | - | - |
* Rain latest hour (hover to see other rain measurements)
** Current wind speed in m/s (hover to see current wind gust speed)